Adger, Alabama
Current Conditions -  °F | °C
As of 12:36 AM on Saturday 20 Dec 2014 (Local Time) from KBHM Reporting Station
Light Rain Light Rain  
Wind Chill: 34°   Ceiling: 400
Heat Index: 40°   Visibility: 5mi
Dew Point: 38°   Wind: 9mph
Humidity: 93%   Direction: 360°N
Pressure: 30.18"   Gusts: NA
Location:  33.44°N, 87.19°W
Report Text: KBHM 200636Z 36008KT 5SM -RA BR BKN004 OVC012 04/03 A3018 RMK AO2 RAE00B18 CIG 004V008 P0000 T00440033
Loading
Personal Weather Stations






























Interactive Weather Map New forecast layout! Learn more

10-Day Weather Forecast

Advertisements
Track Severe Weather on mobile